In Rescue
 
Open Full Screen Window  High Contrast Mode
Wind Gusting 20 knots
10
September 23, 2021 1:00 PM EDT
Weather Information
Wind Direction
  220 °
Wind Speed
  10 kt (12 mph)
Wind Gust
  20 kt (23 mph)
Variable Wind
180°
250°
Altimeter
29.80 in
Visibility
10 SM
Temperature
13° C
55° F
Dewpoint
06° C
43° F
Humidity
63%
1hr Rain Fall
00.00 in.
24hr Rain Fall
00.60 in.
Sky Condition
Overcast @ 4,700 ft
Broken @ 3,900 ft
Scattered @ 2,600 ft
VFR

METAR KPOV 231700Z AUTO 22010G20KT 180V250 10SM SCT026 BKN039 OVC047 13/06 A2980 RMK AO2 T01250061 PWINO

FAA Disclaimer: The data displayed is for advisory purposes only and is not to be used for flight planning or operations.